KSANKBUR

Guest
Details From KSAN - San Diego Intl
To KBUR - Bob Hope
Flight Number -
Tags Decoded
Created
Modified
Stats Distance 106 nm / 196 km
Max Altitude 0 ft / 0 m
Waypoints 2
Social Downloads 2
Likes 0
Share VATSIM

Download

Looking for another format? Having issues loading an existing format? Contact us
Advertisement - Login to hide

Notes

Decoded

Route

KSAN KBUR

ID Type Via Altitude Latitude Longitude Leg Dist Tot Dist Heading (true) Name
O KSAN APT - 0 ft / 0 m 32.73712˚ -117.20435˚ - 0 nm - -
O KBUR APT - 0 ft / 0 m 34.21247˚ -118.36051˚ 105 nm 105 nm 327° / 327° -

Altitude Profile

Advertisement - Login to hide

KSAN

Details ICAO KSAN (SAN)
Name San Diego Intl
Region United States
Timezone America/Los_Angeles (UTC-7.0)
Stats Elevation 17 ft / 5 m (AMSL)
Location 32.733556° -117.189658°
Runways 1
Magnetic Variation 11.487° E

METAR

KSAN 280051Z 28007KT 260V330 10SM FEW250 20/13 A2993 RMK AO2 SLP135 T02000128

Decode

TAF

KSAN 272337Z 2800/2906 26009KT P6SM SKC FM280200 VRB04KT P6SM SCT015 FM280500 VRB04KT P6SM BKN015 FM281900 28010KT P6SM SKC FM290200 VRB04KT P6SM SCT012 FM290400 VRB04KT P6SM OVC012

Decode

Departure Runways

ID Width Length Bearing (true) Bearing (mag) Surface Threshold Offset Overrun Length
09 200 ft / 61 m 9,387 ft / 2,861 m 106.07° 94.58° Asphalt 699 ft / 213 m 269 ft / 82 m
27 200 ft / 61 m 9,387 ft / 2,861 m 286.08° 274.59° Asphalt 1,811 ft / 552 m 0 ft / 0 m

KBUR

Details ICAO KBUR (BUR)
Name BOB HOPE
Region United States
Timezone America/Los_Angeles (UTC-7.0)
Stats Elevation 778 ft / 237 m (AMSL)
Location 34.200475° -118.358767°
Runways 2
Magnetic Variation 12.007° E

METAR

KBUR 280053Z 18008KT 10SM CLR 21/12 A2987 RMK AO2 SLP106 T02110122

Decode

TAF

TAF KBUR 272340Z 2800/2824 20006KT P6SM SKC FM280500 VRB03KT P6SM SKC FM281000 VRB03KT P6SM BKN015 FM281500 VRB03KT 6SM HZ BKN020 FM281700 VRB03KT P6SM SKC FM282000 18008KT P6SM SKC

Decode

Destination Runways

ID Width Length Bearing (true) Bearing (mag) Surface Threshold Offset Overrun Length
08 151 ft / 46 m 5,835 ft / 1,779 m 90.92° 78.91° Asphalt 0 ft / 0 m 259 ft / 79 m
15 151 ft / 46 m 6,962 ft / 2,122 m 167.12° 155.11° Asphalt 909 ft / 277 m 0 ft / 0 m
26 151 ft / 46 m 5,835 ft / 1,779 m 270.93° 258.92° Asphalt 0 ft / 0 m 253 ft / 77 m
33 151 ft / 46 m 6,962 ft / 2,122 m 347.12° 335.11° Asphalt 351 ft / 107 m 0 ft / 0 m

Approach Navaids

Runway Type Ident Frequency Range Bearing (true) Bearing (mag) Slope Elevation
08 Localiser IBUR 109.50 MHz 18 nm / 33 km 90.84° 78.83° - 726 ft / 221 m (AMSL)
08 Glidescope IBUR 109.50 MHz 10 nm / 19 km 90.93° 78.92° 3.00° 720 ft / 219 m (AMSL)

Popular Alternatives